sensor_id;sensor_type;location;lat;lon;timestamp;temperature;humidity
78475;SHT31;67766;51.964;5.660;2023-09-18T00:00:23;22.3;74.2
78475;SHT31;67766;51.964;5.660;2023-09-18T00:02:53;22.3;74.2
78475;SHT31;67766;51.964;5.660;2023-09-18T00:05:22;22.3;74.2
78475;SHT31;67766;51.964;5.660;2023-09-18T00:07:52;22.3;74.2
78475;SHT31;67766;51.964;5.660;2023-09-18T00:10:21;22.3;74.2
78475;SHT31;67766;51.964;5.660;2023-09-18T00:12:52;22.3;74.1
78475;SHT31;67766;51.964;5.660;2023-09-18T00:15:21;22.3;74.1
78475;SHT31;67766;51.964;5.660;2023-09-18T00:17:51;22.3;74.0
78475;SHT31;67766;51.964;5.660;2023-09-18T00:20:21;22.3;74.0
78475;SHT31;67766;51.964;5.660;2023-09-18T00:22:54;22.4;73.9
78475;SHT31;67766;51.964;5.660;2023-09-18T00:25:24;22.4;73.9
78475;SHT31;67766;51.964;5.660;2023-09-18T00:27:53;22.4;73.9
78475;SHT31;67766;51.964;5.660;2023-09-18T00:30:22;22.4;73.9
78475;SHT31;67766;51.964;5.660;2023-09-18T00:32:52;22.4;73.8
78475;SHT31;67766;51.964;5.660;2023-09-18T00:35:21;22.4;73.9
78475;SHT31;67766;51.964;5.660;2023-09-18T00:37:51;22.3;74.0
78475;SHT31;67766;51.964;5.660;2023-09-18T00:40:22;22.3;74.1
78475;SHT31;67766;51.964;5.660;2023-09-18T00:42:52;22.3;74.1
78475;SHT31;67766;51.964;5.660;2023-09-18T00:45:22;22.3;74.1
78475;SHT31;67766;51.964;5.660;2023-09-18T00:47:52;22.3;74.0
78475;SHT31;67766;51.964;5.660;2023-09-18T00:50:22;22.3;74.0
78475;SHT31;67766;51.964;5.660;2023-09-18T00:52:53;22.3;74.0
78475;SHT31;67766;51.964;5.660;2023-09-18T00:55:23;22.3;74.1
78475;SHT31;67766;51.964;5.660;2023-09-18T00:57:52;22.3;74.1
78475;SHT31;67766;51.964;5.660;2023-09-18T01:00:24;22.3;74.2
78475;SHT31;67766;51.964;5.660;2023-09-18T01:02:53;22.3;74.2
78475;SHT31;67766;51.964;5.660;2023-09-18T01:05:23;22.3;74.2
78475;SHT31;67766;51.964;5.660;2023-09-18T01:07:53;22.3;74.3
78475;SHT31;67766;51.964;5.660;2023-09-18T01:10:28;22.3;74.3
78475;SHT31;67766;51.964;5.660;2023-09-18T01:13:04;22.2;74.4
78475;SHT31;67766;51.964;5.660;2023-09-18T01:15:44;22.2;74.4
78475;SHT31;67766;51.964;5.660;2023-09-18T01:18:19;22.2;74.5
78475;SHT31;67766;51.964;5.660;2023-09-18T01:20:48;22.2;74.5
78475;SHT31;67766;51.964;5.660;2023-09-18T01:23:18;22.2;74.6
78475;SHT31;67766;51.964;5.660;2023-09-18T01:25:47;22.2;74.6
78475;SHT31;67766;51.964;5.660;2023-09-18T01:28:17;22.2;74.7
78475;SHT31;67766;51.964;5.660;2023-09-18T01:30:46;22.1;74.6
78475;SHT31;67766;51.964;5.660;2023-09-18T01:33:16;22.2;74.7
78475;SHT31;67766;51.964;5.660;2023-09-18T01:35:47;22.2;74.7
78475;SHT31;67766;51.964;5.660;2023-09-18T01:38:19;22.2;74.8
78475;SHT31;67766;51.964;5.660;2023-09-18T01:40:49;22.1;74.7
78475;SHT31;67766;51.964;5.660;2023-09-18T01:43:21;22.1;74.9
78475;SHT31;67766;51.964;5.660;2023-09-18T01:45:50;22.1;75.0
78475;SHT31;67766;51.964;5.660;2023-09-18T01:48:20;22.1;75.0
78475;SHT31;67766;51.964;5.660;2023-09-18T01:50:50;22.1;74.9
78475;SHT31;67766;51.964;5.660;2023-09-18T01:53:20;22.1;75.0
78475;SHT31;67766;51.964;5.660;2023-09-18T01:55:49;22.1;74.9
78475;SHT31;67766;51.964;5.660;2023-09-18T01:58:19;22.1;74.9
78475;SHT31;67766;51.964;5.660;2023-09-18T02:00:48;22.1;74.9
78475;SHT31;67766;51.964;5.660;2023-09-18T02:03:17;22.1;75.0
78475;SHT31;67766;51.964;5.660;2023-09-18T02:05:48;22.1;75.0
78475;SHT31;67766;51.964;5.660;2023-09-18T02:08:18;22.1;75.0
78475;SHT31;67766;51.964;5.660;2023-09-18T02:10:47;22.0;75.1
78475;SHT31;67766;51.964;5.660;2023-09-18T02:13:16;22.0;75.0
78475;SHT31;67766;51.964;5.660;2023-09-18T02:15:47;22.0;75.1
78475;SHT31;67766;51.964;5.660;2023-09-18T02:18:16;22.0;75.1
78475;SHT31;67766;51.964;5.660;2023-09-18T02:20:46;22.0;75.1
78475;SHT31;67766;51.964;5.660;2023-09-18T02:23:16;22.0;75.1
78475;SHT31;67766;51.964;5.660;2023-09-18T02:25:46;22.0;75.1
78475;SHT31;67766;51.964;5.660;2023-09-18T02:28:15;22.0;75.1
78475;SHT31;67766;51.964;5.660;2023-09-18T02:30:45;22.0;75.1
78475;SHT31;67766;51.964;5.660;2023-09-18T02:33:14;22.0;75.1
78475;SHT31;67766;51.964;5.660;2023-09-18T02:35:44;22.0;75.0
78475;SHT31;67766;51.964;5.660;2023-09-18T02:38:13;22.0;75.0
78475;SHT31;67766;51.964;5.660;2023-09-18T02:40:42;22.0;75.0
78475;SHT31;67766;51.964;5.660;2023-09-18T02:43:12;22.0;75.1
78475;SHT31;67766;51.964;5.660;2023-09-18T02:45:43;22.0;75.1
78475;SHT31;67766;51.964;5.660;2023-09-18T02:48:13;22.0;75.1
78475;SHT31;67766;51.964;5.660;2023-09-18T02:50:43;22.0;75.1
78475;SHT31;67766;51.964;5.660;2023-09-18T02:53:18;22.1;75.0
78475;SHT31;67766;51.964;5.660;2023-09-18T02:55:51;22.1;75.0
78475;SHT31;67766;51.964;5.660;2023-09-18T02:58:22;22.1;74.9
78475;SHT31;67766;51.964;5.660;2023-09-18T03:00:53;22.1;74.9
78475;SHT31;67766;51.964;5.660;2023-09-18T03:03:24;22.1;75.0
78475;SHT31;67766;51.964;5.660;2023-09-18T03:06:04;22.1;75.0
78475;SHT31;67766;51.964;5.660;2023-09-18T03:08:34;22.1;74.9
78475;SHT31;67766;51.964;5.660;2023-09-18T03:11:14;22.1;74.9
78475;SHT31;67766;51.964;5.660;2023-09-18T03:13:47;22.1;75.0
78475;SHT31;67766;51.964;5.660;2023-09-18T03:16:16;22.1;74.9
78475;SHT31;67766;51.964;5.660;2023-09-18T03:18:46;22.1;74.9
78475;SHT31;67766;51.964;5.660;2023-09-18T03:21:16;22.1;74.8
78475;SHT31;67766;51.964;5.660;2023-09-18T03:23:45;22.1;74.9
78475;SHT31;67766;51.964;5.660;2023-09-18T03:26:15;22.1;74.9
78475;SHT31;67766;51.964;5.660;2023-09-18T03:28:44;22.1;75.0
78475;SHT31;67766;51.964;5.660;2023-09-18T03:31:14;22.1;74.9
78475;SHT31;67766;51.964;5.660;2023-09-18T03:33:43;22.1;75.0
78475;SHT31;67766;51.964;5.660;2023-09-18T03:36:13;22.1;75.1
78475;SHT31;67766;51.964;5.660;2023-09-18T03:38:43;22.1;75.1
78475;SHT31;67766;51.964;5.660;2023-09-18T03:41:13;22.1;74.9
78475;SHT31;67766;51.964;5.660;2023-09-18T03:43:42;22.1;75.1
78475;SHT31;67766;51.964;5.660;2023-09-18T03:46:11;22.1;74.9
78475;SHT31;67766;51.964;5.660;2023-09-18T03:48:41;22.0;74.8
78475;SHT31;67766;51.964;5.660;2023-09-18T03:51:10;22.0;75.0
78475;SHT31;67766;51.964;5.660;2023-09-18T03:53:44;22.0;75.0
78475;SHT31;67766;51.964;5.660;2023-09-18T03:56:15;22.0;74.9
78475;SHT31;67766;51.964;5.660;2023-09-18T03:58:45;22.0;74.9
78475;SHT31;67766;51.964;5.660;2023-09-18T04:01:16;22.0;75.0
78475;SHT31;67766;51.964;5.660;2023-09-18T04:03:46;22.0;75.1
78475;SHT31;67766;51.964;5.660;2023-09-18T04:06:15;22.0;75.2
78475;SHT31;67766;51.964;5.660;2023-09-18T04:08:47;22.0;75.2
78475;SHT31;67766;51.964;5.660;2023-09-18T04:11:17;22.0;75.1
78475;SHT31;67766;51.964;5.660;2023-09-18T04:13:52;22.0;75.2
78475;SHT31;67766;51.964;5.660;2023-09-18T04:16:22;22.0;75.1
78475;SHT31;67766;51.964;5.660;2023-09-18T04:18:51;22.1;75.2
78475;SHT31;67766;51.964;5.660;2023-09-18T04:21:21;22.1;74.9
78475;SHT31;67766;51.964;5.660;2023-09-18T04:23:51;22.1;74.7
78475;SHT31;67766;51.964;5.660;2023-09-18T04:26:24;22.1;74.8
78475;SHT31;67766;51.964;5.660;2023-09-18T04:28:57;22.1;74.7
78475;SHT31;67766;51.964;5.660;2023-09-18T04:31:27;22.1;74.6
78475;SHT31;67766;51.964;5.660;2023-09-18T04:33:57;22.1;74.6
78475;SHT31;67766;51.964;5.660;2023-09-18T04:36:26;22.1;74.7
78475;SHT31;67766;51.964;5.660;2023-09-18T04:38:55;22.1;74.9
78475;SHT31;67766;51.964;5.660;2023-09-18T04:41:25;22.1;75.1
78475;SHT31;67766;51.964;5.660;2023-09-18T04:43:55;22.0;75.3
78475;SHT31;67766;51.964;5.660;2023-09-18T04:46:24;22.0;75.6
78475;SHT31;67766;51.964;5.660;2023-09-18T04:48:54;22.0;75.8
78475;SHT31;67766;51.964;5.660;2023-09-18T04:51:23;22.0;75.9
78475;SHT31;67766;51.964;5.660;2023-09-18T04:53:53;21.9;76.1
78475;SHT31;67766;51.964;5.660;2023-09-18T04:56:23;21.9;76.2
78475;SHT31;67766;51.964;5.660;2023-09-18T04:58:53;21.9;76.8
78475;SHT31;67766;51.964;5.660;2023-09-18T05:01:23;21.9;77.1
78475;SHT31;67766;51.964;5.660;2023-09-18T05:03:52;21.9;77.8
78475;SHT31;67766;51.964;5.660;2023-09-18T05:06:23;21.9;78.2
78475;SHT31;67766;51.964;5.660;2023-09-18T05:08:53;21.9;78.9
78475;SHT31;67766;51.964;5.660;2023-09-18T05:11:22;21.8;79.2
78475;SHT31;67766;51.964;5.660;2023-09-18T05:13:52;21.8;79.0
78475;SHT31;67766;51.964;5.660;2023-09-18T05:16:24;21.8;79.1
78475;SHT31;67766;51.964;5.660;2023-09-18T05:18:53;21.8;78.9
78475;SHT31;67766;51.964;5.660;2023-09-18T05:21:22;21.9;78.6
78475;SHT31;67766;51.964;5.660;2023-09-18T05:23:54;21.9;78.8
78475;SHT31;67766;51.964;5.660;2023-09-18T05:26:23;21.9;78.5
78475;SHT31;67766;51.964;5.660;2023-09-18T05:28:54;22.0;78.7
78475;SHT31;67766;51.964;5.660;2023-09-18T05:31:23;22.0;78.5
78475;SHT31;67766;51.964;5.660;2023-09-18T05:33:53;22.0;78.2
78475;SHT31;67766;51.964;5.660;2023-09-18T05:36:22;22.0;78.3
78475;SHT31;67766;51.964;5.660;2023-09-18T05:38:52;22.0;78.2
78475;SHT31;67766;51.964;5.660;2023-09-18T05:41:21;22.1;78.1
78475;SHT31;67766;51.964;5.660;2023-09-18T05:43:53;22.1;78.0
78475;SHT31;67766;51.964;5.660;2023-09-18T05:46:25;22.1;78.0
78475;SHT31;67766;51.964;5.660;2023-09-18T05:48:54;22.1;78.1
78475;SHT31;67766;51.964;5.660;2023-09-18T05:51:25;22.1;78.0
78475;SHT31;67766;51.964;5.660;2023-09-18T05:53:54;22.1;78.2
78475;SHT31;67766;51.964;5.660;2023-09-18T05:56:24;22.1;78.1
78475;SHT31;67766;51.964;5.660;2023-09-18T05:58:55;22.1;78.2
78475;SHT31;67766;51.964;5.660;2023-09-18T06:01:24;22.1;78.2
78475;SHT31;67766;51.964;5.660;2023-09-18T06:03:55;22.1;78.0
78475;SHT31;67766;51.964;5.660;2023-09-18T06:06:24;22.1;77.9
78475;SHT31;67766;51.964;5.660;2023-09-18T06:08:54;22.1;77.8
78475;SHT31;67766;51.964;5.660;2023-09-18T06:11:23;22.1;77.8
78475;SHT31;67766;51.964;5.660;2023-09-18T06:13:53;22.1;77.8
78475;SHT31;67766;51.964;5.660;2023-09-18T06:16:22;22.1;77.8
78475;SHT31;67766;51.964;5.660;2023-09-18T06:18:52;22.1;77.9
78475;SHT31;67766;51.964;5.660;2023-09-18T06:21:23;22.1;77.9
78475;SHT31;67766;51.964;5.660;2023-09-18T06:23:52;22.0;78.0
78475;SHT31;67766;51.964;5.660;2023-09-18T06:26:22;22.0;78.2
78475;SHT31;67766;51.964;5.660;2023-09-18T06:28:51;22.0;78.4
78475;SHT31;67766;51.964;5.660;2023-09-18T06:31:22;21.9;78.5
78475;SHT31;67766;51.964;5.660;2023-09-18T06:33:54;21.9;78.6
78475;SHT31;67766;51.964;5.660;2023-09-18T06:36:23;21.9;78.8
78475;SHT31;67766;51.964;5.660;2023-09-18T06:38:52;21.9;78.8
78475;SHT31;67766;51.964;5.660;2023-09-18T06:41:22;21.9;78.7
78475;SHT31;67766;51.964;5.660;2023-09-18T06:43:52;21.9;78.6
78475;SHT31;67766;51.964;5.660;2023-09-18T06:46:21;21.9;78.4
78475;SHT31;67766;51.964;5.660;2023-09-18T06:48:51;21.9;78.6
78475;SHT31;67766;51.964;5.660;2023-09-18T06:51:22;21.9;78.4
78475;SHT31;67766;51.964;5.660;2023-09-18T06:53:52;21.9;78.3
78475;SHT31;67766;51.964;5.660;2023-09-18T06:56:24;21.8;78.6
78475;SHT31;67766;51.964;5.660;2023-09-18T06:58:55;21.8;78.1
78475;SHT31;67766;51.964;5.660;2023-09-18T07:01:25;21.8;77.9
78475;SHT31;67766;51.964;5.660;2023-09-18T07:03:55;21.8;77.9
78475;SHT31;67766;51.964;5.660;2023-09-18T07:06:26;21.8;77.7
78475;SHT31;67766;51.964;5.660;2023-09-18T07:08:56;21.8;77.5
78475;SHT31;67766;51.964;5.660;2023-09-18T07:11:26;21.8;77.5
78475;SHT31;67766;51.964;5.660;2023-09-18T07:13:57;21.8;77.6
78475;SHT31;67766;51.964;5.660;2023-09-18T07:16:26;21.8;77.4
78475;SHT31;67766;51.964;5.660;2023-09-18T07:18:56;21.7;77.6
78475;SHT31;67766;51.964;5.660;2023-09-18T07:21:25;21.7;77.3
78475;SHT31;67766;51.964;5.660;2023-09-18T07:23:56;21.7;77.4
78475;SHT31;67766;51.964;5.660;2023-09-18T07:26:25;21.7;77.7
78475;SHT31;67766;51.964;5.660;2023-09-18T07:28:55;21.7;77.5
78475;SHT31;67766;51.964;5.660;2023-09-18T07:31:24;21.7;77.5
78475;SHT31;67766;51.964;5.660;2023-09-18T07:33:54;21.7;77.6
78475;SHT31;67766;51.964;5.660;2023-09-18T07:36:23;21.7;77.5
78475;SHT31;67766;51.964;5.660;2023-09-18T07:38:53;21.7;77.4
78475;SHT31;67766;51.964;5.660;2023-09-18T07:41:24;21.7;77.3
78475;SHT31;67766;51.964;5.660;2023-09-18T07:43:53;21.7;77.5
78475;SHT31;67766;51.964;5.660;2023-09-18T07:46:24;21.7;77.2
78475;SHT31;67766;51.964;5.660;2023-09-18T07:48:54;21.7;76.8
78475;SHT31;67766;51.964;5.660;2023-09-18T07:51:23;21.7;76.7
78475;SHT31;67766;51.964;5.660;2023-09-18T07:53:53;21.7;77.2
78475;SHT31;67766;51.964;5.660;2023-09-18T07:56:24;21.7;77.3
78475;SHT31;67766;51.964;5.660;2023-09-18T07:58:54;21.7;76.8
78475;SHT31;67766;51.964;5.660;2023-09-18T08:01:24;21.7;76.6
78475;SHT31;67766;51.964;5.660;2023-09-18T08:03:53;21.7;77.0
78475;SHT31;67766;51.964;5.660;2023-09-18T08:06:24;21.7;76.5
78475;SHT31;67766;51.964;5.660;2023-09-18T08:08:53;21.7;76.6
78475;SHT31;67766;51.964;5.660;2023-09-18T08:11:23;21.7;76.1
78475;SHT31;67766;51.964;5.660;2023-09-18T08:13:52;21.8;76.1
78475;SHT31;67766;51.964;5.660;2023-09-18T08:16:22;21.8;75.5
78475;SHT31;67766;51.964;5.660;2023-09-18T08:18:51;21.8;75.4
78475;SHT31;67766;51.964;5.660;2023-09-18T08:21:22;21.8;75.3
78475;SHT31;67766;51.964;5.660;2023-09-18T08:23:52;21.8;75.3
78475;SHT31;67766;51.964;5.660;2023-09-18T08:26:23;21.8;75.4
78475;SHT31;67766;51.964;5.660;2023-09-18T08:28:52;21.8;74.7
78475;SHT31;67766;51.964;5.660;2023-09-18T08:31:23;21.8;74.9
78475;SHT31;67766;51.964;5.660;2023-09-18T08:33:54;21.8;75.3
78475;SHT31;67766;51.964;5.660;2023-09-18T08:36:24;21.8;74.7
78475;SHT31;67766;51.964;5.660;2023-09-18T08:38:53;21.8;74.0
78475;SHT31;67766;51.964;5.660;2023-09-18T08:41:24;21.8;74.0
78475;SHT31;67766;51.964;5.660;2023-09-18T08:43:58;21.8;73.6
78475;SHT31;67766;51.964;5.660;2023-09-18T08:46:31;21.9;73.3
78475;SHT31;67766;51.964;5.660;2023-09-18T08:49:01;21.9;73.4
78475;SHT31;67766;51.964;5.660;2023-09-18T08:51:32;22.0;73.2
78475;SHT31;67766;51.964;5.660;2023-09-18T08:54:04;22.0;73.5
78475;SHT31;67766;51.964;5.660;2023-09-18T08:56:34;22.0;72.9
78475;SHT31;67766;51.964;5.660;2023-09-18T08:59:04;22.1;72.6
78475;SHT31;67766;51.964;5.660;2023-09-18T09:01:34;22.1;72.8
78475;SHT31;67766;51.964;5.660;2023-09-18T09:04:03;22.1;71.6
78475;SHT31;67766;51.964;5.660;2023-09-18T09:06:33;22.1;72.2
78475;SHT31;67766;51.964;5.660;2023-09-18T09:09:03;22.1;71.4
78475;SHT31;67766;51.964;5.660;2023-09-18T09:11:35;22.1;71.5
78475;SHT31;67766;51.964;5.660;2023-09-18T09:14:12;22.2;71.8
78475;SHT31;67766;51.964;5.660;2023-09-18T09:16:49;22.2;71.7
78475;SHT31;67766;51.964;5.660;2023-09-18T09:19:31;22.2;71.9
78475;SHT31;67766;51.964;5.660;2023-09-18T09:22:04;22.3;71.8
78475;SHT31;67766;51.964;5.660;2023-09-18T09:24:41;22.4;71.9
78475;SHT31;67766;51.964;5.660;2023-09-18T09:27:11;22.5;71.2
78475;SHT31;67766;51.964;5.660;2023-09-18T09:29:42;22.7;70.6
78475;SHT31;67766;51.964;5.660;2023-09-18T09:32:18;22.8;69.2
78475;SHT31;67766;51.964;5.660;2023-09-18T09:34:47;23.0;69.8
78475;SHT31;67766;51.964;5.660;2023-09-18T09:37:17;23.2;70.0
78475;SHT31;67766;51.964;5.660;2023-09-18T09:39:51;23.5;67.5
78475;SHT31;67766;51.964;5.660;2023-09-18T09:42:21;23.8;66.5
78475;SHT31;67766;51.964;5.660;2023-09-18T09:45:02;24.1;64.9
78475;SHT31;67766;51.964;5.660;2023-09-18T09:47:35;24.4;64.9
78475;SHT31;67766;51.964;5.660;2023-09-18T09:50:09;24.6;63.5
78475;SHT31;67766;51.964;5.660;2023-09-18T09:52:43;24.9;62.7
78475;SHT31;67766;51.964;5.660;2023-09-18T09:55:21;25.1;61.3
78475;SHT31;67766;51.964;5.660;2023-09-18T09:57:53;25.3;61.0
78475;SHT31;67766;51.964;5.660;2023-09-18T10:00:32;25.5;60.7
78475;SHT31;67766;51.964;5.660;2023-09-18T10:03:07;25.5;60.1
78475;SHT31;67766;51.964;5.660;2023-09-18T10:05:40;25.5;59.0
78475;SHT31;67766;51.964;5.660;2023-09-18T10:08:14;25.5;58.5
78475;SHT31;67766;51.964;5.660;2023-09-18T10:10:48;25.3;59.2
78475;SHT31;67766;51.964;5.660;2023-09-18T10:13:23;25.2;59.7
78475;SHT31;67766;51.964;5.660;2023-09-18T10:15:56;25.0;60.0
78475;SHT31;67766;51.964;5.660;2023-09-18T10:18:38;24.9;60.3
78475;SHT31;67766;51.964;5.660;2023-09-18T10:21:16;24.8;60.6
78475;SHT31;67766;51.964;5.660;2023-09-18T10:23:57;24.7;61.6
78475;SHT31;67766;51.964;5.660;2023-09-18T10:26:29;24.7;60.5
78475;SHT31;67766;51.964;5.660;2023-09-18T10:29:03;24.6;61.2
78475;SHT31;67766;51.964;5.660;2023-09-18T10:31:38;24.5;61.6
78475;SHT31;67766;51.964;5.660;2023-09-18T10:34:08;24.4;62.3
78475;SHT31;67766;51.964;5.660;2023-09-18T10:36:41;24.3;62.9
78475;SHT31;67766;51.964;5.660;2023-09-18T10:39:11;24.2;63.3
78475;SHT31;67766;51.964;5.660;2023-09-18T10:41:41;24.2;63.2
78475;SHT31;67766;51.964;5.660;2023-09-18T10:44:14;24.1;62.7
78475;SHT31;67766;51.964;5.660;2023-09-18T10:46:46;24.1;62.6
78475;SHT31;67766;51.964;5.660;2023-09-18T10:49:16;24.0;63.1
78475;SHT31;67766;51.964;5.660;2023-09-18T10:51:46;24.0;63.2
78475;SHT31;67766;51.964;5.660;2023-09-18T10:54:21;24.0;62.9
78475;SHT31;67766;51.964;5.660;2023-09-18T10:56:51;23.9;63.2
78475;SHT31;67766;51.964;5.660;2023-09-18T10:59:21;23.9;63.7
78475;SHT31;67766;51.964;5.660;2023-09-18T11:01:52;23.9;63.7
78475;SHT31;67766;51.964;5.660;2023-09-18T11:04:25;23.9;63.4
78475;SHT31;67766;51.964;5.660;2023-09-18T11:07:04;24.0;63.7
78475;SHT31;67766;51.964;5.660;2023-09-18T11:09:44;24.2;63.3
78475;SHT31;67766;51.964;5.660;2023-09-18T11:12:16;24.4;62.0
78475;SHT31;67766;51.964;5.660;2023-09-18T11:14:49;24.6;62.0
78475;SHT31;67766;51.964;5.660;2023-09-18T11:17:36;24.9;61.2
78475;SHT31;67766;51.964;5.660;2023-09-18T11:20:08;25.2;59.8
78475;SHT31;67766;51.964;5.660;2023-09-18T11:22:45;25.3;58.5
78475;SHT31;67766;51.964;5.660;2023-09-18T11:25:37;25.4;58.5
78475;SHT31;67766;51.964;5.660;2023-09-18T11:28:14;25.4;57.9
78475;SHT31;67766;51.964;5.660;2023-09-18T11:30:52;25.4;57.3
78475;SHT31;67766;51.964;5.660;2023-09-18T11:33:35;25.3;57.6
78475;SHT31;67766;51.964;5.660;2023-09-18T11:36:07;25.4;58.3
78475;SHT31;67766;51.964;5.660;2023-09-18T11:39:01;25.5;58.6
78475;SHT31;67766;51.964;5.660;2023-09-18T11:41:33;25.5;56.8
78475;SHT31;67766;51.964;5.660;2023-09-18T11:44:34;25.5;57.3
78475;SHT31;67766;51.964;5.660;2023-09-18T11:47:10;25.5;57.0
78475;SHT31;67766;51.964;5.660;2023-09-18T11:49:50;25.5;57.6
78475;SHT31;67766;51.964;5.660;2023-09-18T11:52:22;25.4;57.9
78475;SHT31;67766;51.964;5.660;2023-09-18T11:54:53;25.4;56.4
78475;SHT31;67766;51.964;5.660;2023-09-18T11:57:23;25.4;56.7
78475;SHT31;67766;51.964;5.660;2023-09-18T11:59:53;25.3;56.9
78475;SHT31;67766;51.964;5.660;2023-09-18T12:02:28;25.2;56.0
78475;SHT31;67766;51.964;5.660;2023-09-18T12:05:10;25.1;55.6
78475;SHT31;67766;51.964;5.660;2023-09-18T12:07:40;25.0;56.4
78475;SHT31;67766;51.964;5.660;2023-09-18T12:10:14;24.9;56.7
78475;SHT31;67766;51.964;5.660;2023-09-18T12:12:45;24.7;56.6
78475;SHT31;67766;51.964;5.660;2023-09-18T12:15:17;24.6;57.6
78475;SHT31;67766;51.964;5.660;2023-09-18T12:17:47;24.5;57.4
78475;SHT31;67766;51.964;5.660;2023-09-18T12:20:18;24.5;58.9
78475;SHT31;67766;51.964;5.660;2023-09-18T12:22:50;24.4;58.7
78475;SHT31;67766;51.964;5.660;2023-09-18T12:25:21;24.4;59.5
78475;SHT31;67766;51.964;5.660;2023-09-18T12:27:53;24.4;59.0
78475;SHT31;67766;51.964;5.660;2023-09-18T12:30:23;24.4;58.5
78475;SHT31;67766;51.964;5.660;2023-09-18T12:32:52;24.5;58.5
78475;SHT31;67766;51.964;5.660;2023-09-18T12:35:27;24.5;59.5
78475;SHT31;67766;51.964;5.660;2023-09-18T12:37:59;24.5;59.5
78475;SHT31;67766;51.964;5.660;2023-09-18T12:40:31;24.5;59.3
78475;SHT31;67766;51.964;5.660;2023-09-18T12:43:02;24.5;58.6
78475;SHT31;67766;51.964;5.660;2023-09-18T12:45:36;24.6;58.9
78475;SHT31;67766;51.964;5.660;2023-09-18T12:48:06;24.6;57.5
78475;SHT31;67766;51.964;5.660;2023-09-18T12:50:36;24.6;57.9
78475;SHT31;67766;51.964;5.660;2023-09-18T12:53:13;24.6;58.7
78475;SHT31;67766;51.964;5.660;2023-09-18T12:55:46;24.7;57.6
78475;SHT31;67766;51.964;5.660;2023-09-18T12:58:18;24.7;57.5
78475;SHT31;67766;51.964;5.660;2023-09-18T13:00:49;24.7;56.9
78475;SHT31;67766;51.964;5.660;2023-09-18T13:03:21;24.7;57.3
78475;SHT31;67766;51.964;5.660;2023-09-18T13:05:51;24.7;58.3
78475;SHT31;67766;51.964;5.660;2023-09-18T13:08:23;24.7;58.2
78475;SHT31;67766;51.964;5.660;2023-09-18T13:10:55;24.8;57.2
78475;SHT31;67766;51.964;5.660;2023-09-18T13:13:25;24.9;56.2
78475;SHT31;67766;51.964;5.660;2023-09-18T13:15:57;24.9;56.7
78475;SHT31;67766;51.964;5.660;2023-09-18T13:18:28;24.9;56.7
78475;SHT31;67766;51.964;5.660;2023-09-18T13:20:57;24.9;57.0
78475;SHT31;67766;51.964;5.660;2023-09-18T13:23:31;24.9;57.5
78475;SHT31;67766;51.964;5.660;2023-09-18T13:26:02;24.9;57.8
78475;SHT31;67766;51.964;5.660;2023-09-18T13:28:32;25.0;56.2
78475;SHT31;67766;51.964;5.660;2023-09-18T13:31:04;25.0;56.3
78475;SHT31;67766;51.964;5.660;2023-09-18T13:33:38;25.0;56.4
78475;SHT31;67766;51.964;5.660;2023-09-18T13:36:11;25.1;56.7
78475;SHT31;67766;51.964;5.660;2023-09-18T13:38:42;25.1;56.3
78475;SHT31;67766;51.964;5.660;2023-09-18T13:41:12;25.1;56.0
78475;SHT31;67766;51.964;5.660;2023-09-18T13:43:42;25.1;56.4
78475;SHT31;67766;51.964;5.660;2023-09-18T13:46:12;25.1;55.7
78475;SHT31;67766;51.964;5.660;2023-09-18T13:48:42;25.1;55.9
78475;SHT31;67766;51.964;5.660;2023-09-18T13:51:12;25.1;56.8
78475;SHT31;67766;51.964;5.660;2023-09-18T13:53:41;25.1;56.8
78475;SHT31;67766;51.964;5.660;2023-09-18T13:56:11;25.1;55.9
78475;SHT31;67766;51.964;5.660;2023-09-18T13:58:40;25.0;55.0
78475;SHT31;67766;51.964;5.660;2023-09-18T14:01:10;25.0;55.2
78475;SHT31;67766;51.964;5.660;2023-09-18T14:03:39;24.9;56.0
78475;SHT31;67766;51.964;5.660;2023-09-18T14:06:12;24.9;56.0
78475;SHT31;67766;51.964;5.660;2023-09-18T14:08:41;24.9;55.1
78475;SHT31;67766;51.964;5.660;2023-09-18T14:11:11;24.8;54.6
78475;SHT31;67766;51.964;5.660;2023-09-18T14:13:40;24.8;55.4
78475;SHT31;67766;51.964;5.660;2023-09-18T14:16:10;24.8;55.2
78475;SHT31;67766;51.964;5.660;2023-09-18T14:18:41;24.7;55.5
78475;SHT31;67766;51.964;5.660;2023-09-18T14:21:13;24.7;56.4
78475;SHT31;67766;51.964;5.660;2023-09-18T14:23:43;24.7;55.9
78475;SHT31;67766;51.964;5.660;2023-09-18T14:26:12;24.7;55.2
78475;SHT31;67766;51.964;5.660;2023-09-18T14:28:42;24.7;54.6
78475;SHT31;67766;51.964;5.660;2023-09-18T14:31:14;24.7;55.0
78475;SHT31;67766;51.964;5.660;2023-09-18T14:33:44;24.7;54.0
78475;SHT31;67766;51.964;5.660;2023-09-18T14:36:13;24.7;53.8
78475;SHT31;67766;51.964;5.660;2023-09-18T14:38:43;24.7;53.9
78475;SHT31;67766;51.964;5.660;2023-09-18T14:41:13;24.7;54.5
78475;SHT31;67766;51.964;5.660;2023-09-18T14:43:44;24.7;54.5
78475;SHT31;67766;51.964;5.660;2023-09-18T14:46:14;24.7;54.3
78475;SHT31;67766;51.964;5.660;2023-09-18T14:48:43;24.7;53.4
78475;SHT31;67766;51.964;5.660;2023-09-18T14:51:13;24.7;53.7
78475;SHT31;67766;51.964;5.660;2023-09-18T14:53:42;24.7;54.0
78475;SHT31;67766;51.964;5.660;2023-09-18T14:56:12;24.7;53.3
78475;SHT31;67766;51.964;5.660;2023-09-18T14:58:41;24.7;54.0
78475;SHT31;67766;51.964;5.660;2023-09-18T15:01:12;24.7;53.0
78475;SHT31;67766;51.964;5.660;2023-09-18T15:03:42;24.7;53.5
78475;SHT31;67766;51.964;5.660;2023-09-18T15:06:12;24.7;53.8
78475;SHT31;67766;51.964;5.660;2023-09-18T15:08:41;24.6;53.6
78475;SHT31;67766;51.964;5.660;2023-09-18T15:11:11;24.6;53.9
78475;SHT31;67766;51.964;5.660;2023-09-18T15:13:44;24.6;54.7
78475;SHT31;67766;51.964;5.660;2023-09-18T15:16:16;24.6;54.9
78475;SHT31;67766;51.964;5.660;2023-09-18T15:18:45;24.5;54.7
78475;SHT31;67766;51.964;5.660;2023-09-18T15:21:16;24.5;55.6
78475;SHT31;67766;51.964;5.660;2023-09-18T15:23:46;24.4;56.0
78475;SHT31;67766;51.964;5.660;2023-09-18T15:26:17;24.4;54.7
78475;SHT31;67766;51.964;5.660;2023-09-18T15:28:47;24.3;54.4
78475;SHT31;67766;51.964;5.660;2023-09-18T15:31:16;24.2;53.4
78475;SHT31;67766;51.964;5.660;2023-09-18T15:33:46;24.1;53.9
78475;SHT31;67766;51.964;5.660;2023-09-18T15:36:16;23.9;55.0
78475;SHT31;67766;51.964;5.660;2023-09-18T15:38:45;23.8;55.6
78475;SHT31;67766;51.964;5.660;2023-09-18T15:41:15;23.7;55.7
78475;SHT31;67766;51.964;5.660;2023-09-18T15:43:44;23.7;56.4
78475;SHT31;67766;51.964;5.660;2023-09-18T15:46:16;23.5;57.1
78475;SHT31;67766;51.964;5.660;2023-09-18T15:48:46;23.3;57.5
78475;SHT31;67766;51.964;5.660;2023-09-18T15:51:17;23.1;58.6
78475;SHT31;67766;51.964;5.660;2023-09-18T15:53:47;22.8;60.0
78475;SHT31;67766;51.964;5.660;2023-09-18T15:56:16;22.6;60.4
78475;SHT31;67766;51.964;5.660;2023-09-18T15:58:47;22.4;61.0
78475;SHT31;67766;51.964;5.660;2023-09-18T16:01:17;22.2;62.1
78475;SHT31;67766;51.964;5.660;2023-09-18T16:03:48;22.0;62.5
78475;SHT31;67766;51.964;5.660;2023-09-18T16:06:17;21.8;63.4
78475;SHT31;67766;51.964;5.660;2023-09-18T16:08:48;21.6;64.3
78475;SHT31;67766;51.964;5.660;2023-09-18T16:11:18;21.6;64.1
78475;SHT31;67766;51.964;5.660;2023-09-18T16:13:49;21.5;64.3
78475;SHT31;67766;51.964;5.660;2023-09-18T16:16:20;21.4;64.6
78475;SHT31;67766;51.964;5.660;2023-09-18T16:18:50;21.3;64.8
78475;SHT31;67766;51.964;5.660;2023-09-18T16:21:23;21.2;65.8
78475;SHT31;67766;51.964;5.660;2023-09-18T16:23:53;21.1;66.6
78475;SHT31;67766;51.964;5.660;2023-09-18T16:26:22;21.1;66.6